Time;durP1;ratioP1;P1;durP2;ratioP2;P2;SDS_P1;SDS_P2;PMS_P1;PMS_P2;Temp;Humidity;BMP_temperature;BMP_pressure;BME280_temperature;BME280_humidity;BME280_pressure;Samples;Min_cycle;Max_cycle;Signal;HPM_P1;HPM_P2
2023/10/02 00:02:05;;;;;;;9.82;4.85;;;;;;;19.55;65.65;101998.81;5033167;28;20037;-54
2023/10/02 00:04:34;;;;;;;9.70;4.95;;;;;;;19.56;65.47;102002.41;5033434;28;20495;-54
2023/10/02 00:07:05;;;;;;;7.90;4.68;;;;;;;19.54;65.74;101997.97;5033617;28;20494;-54
2023/10/02 00:09:35;;;;;;;7.95;5.15;;;;;;;19.54;65.86;102006.09;5033813;28;20037;-54
2023/10/02 00:12:13;;;;;;;7.75;4.40;;;;;;;19.54;65.47;102000.69;5032940;28;20544;-54
2023/10/02 00:14:42;;;;;;;7.47;4.90;;;;;;;19.53;65.76;102001.69;5032475;28;20025;-54
2023/10/02 00:17:14;;;;;;;7.38;4.53;;;;;;;19.53;65.50;101998.97;5032426;28;20057;-54
2023/10/02 00:19:49;;;;;;;9.82;5.30;;;;;;;19.54;65.96;101995.28;5034097;28;20037;-54
2023/10/02 00:22:38;;;;;;;8.57;4.75;;;;;;;19.53;65.44;101998.09;5036012;28;20037;-54
2023/10/02 00:25:16;;;;;;;8.55;4.93;;;;;;;19.54;65.47;102002.53;5035776;28;20017;-54
2023/10/02 00:27:46;;;;;;;7.15;4.47;;;;;;;19.53;65.34;101996.28;5036098;28;20930;-54
2023/10/02 00:30:13;;;;;;;7.90;4.65;;;;;;;19.53;65.49;101995.41;5034188;28;20083;-54
2023/10/02 00:32:41;;;;;;;7.63;4.53;;;;;;;19.52;65.45;102005.34;5035729;28;20038;-54
2023/10/02 00:35:10;;;;;;;7.22;4.68;;;;;;;19.52;65.49;101997.25;5036208;28;20379;-54
2023/10/02 00:37:51;;;;;;;7.65;4.75;;;;;;;19.52;65.67;101999.09;5035835;28;20394;-54
2023/10/02 00:40:24;;;;;;;7.82;5.22;;;;;;;19.52;65.78;102005.34;5033022;28;20035;-54
2023/10/02 00:42:54;;;;;;;8.80;4.90;;;;;;;19.52;65.86;102005.34;5033685;28;20025;-54
2023/10/02 00:45:19;;;;;;;8.77;4.72;;;;;;;19.51;65.42;102003.66;5037349;28;20474;-54
2023/10/02 00:47:45;;;;;;;7.38;5.00;;;;;;;19.52;65.40;101993.69;5036354;28;20088;-54
2023/10/02 00:50:20;;;;;;;8.40;5.28;;;;;;;19.50;65.26;101991.13;5036221;28;20486;-54
2023/10/02 00:52:59;;;;;;;7.57;4.82;;;;;;;19.51;65.46;101990.16;5035826;28;20035;-54
2023/10/02 00:55:32;;;;;;;7.45;4.40;;;;;;;19.51;65.36;101987.44;5032494;28;20037;-55
2023/10/02 00:57:59;;;;;;;7.25;4.53;;;;;;;19.50;65.48;101990.28;5035927;28;20036;-54
2023/10/02 01:00:36;;;;;;;7.85;4.65;;;;;;;19.50;65.28;101987.56;5034301;28;20040;-54
2023/10/02 01:03:16;;;;;;;7.78;4.80;;;;;;;19.51;65.50;101981.16;5033449;28;20037;-54
2023/10/02 01:05:47;;;;;;;8.18;4.57;;;;;;;19.50;65.04;101985.72;5033142;28;20360;-54
2023/10/02 01:08:23;;;;;;;;;;;;;;;19.59;65.17;101980.53;5035800;28;20033;-54
2023/10/02 01:10:57;;;;;;;7.88;4.57;;;;;;;19.51;64.97;101976.63;5033131;28;19969;-54
2023/10/02 01:13:32;;;;;;;8.30;4.72;;;;;;;19.50;65.27;101974.06;5034376;28;20060;-54
2023/10/02 01:16:04;;;;;;;8.55;4.53;;;;;;;19.49;65.35;101978.59;5034617;28;20029;-54
2023/10/02 01:18:30;;;;;;;6.78;4.38;;;;;;;19.48;65.19;101982.28;5034511;28;20061;-54
2023/10/02 01:21:00;;;;;;;8.43;5.15;;;;;;;19.47;65.17;101972.47;5034463;28;20029;-54
2023/10/02 01:23:28;;;;;;;8.20;4.68;;;;;;;19.48;65.46;101982.28;5035905;28;20442;-54
2023/10/02 01:26:00;;;;;;;7.50;4.18;;;;;;;19.47;65.28;101972.47;5035143;28;20032;-54
2023/10/02 01:28:51;;;;;;;7.90;4.43;;;;;;;19.47;65.65;101980.56;5030195;28;20128;-54
2023/10/02 01:31:35;;;;;;;;;;;;;;;19.57;65.26;101974.38;5033183;28;20036;-54
2023/10/02 01:34:02;;;;;;;7.60;4.72;;;;;;;19.48;65.09;101976.88;5032451;28;19917;-54
2023/10/02 01:36:32;;;;;;;7.75;4.63;;;;;;;19.47;65.33;101977.84;5035172;28;20033;-54
2023/10/02 01:39:15;;;;;;;7.25;4.45;;;;;;;19.47;65.30;101966.22;5035065;28;20483;-54
2023/10/02 01:41:45;;;;;;;9.43;5.10;;;;;;;19.47;65.54;101974.31;5034558;28;20091;-54
2023/10/02 01:44:11;;;;;;;7.40;4.72;;;;;;;19.45;65.15;101971.72;5031245;28;20049;-54
2023/10/02 01:46:49;;;;;;;8.70;4.65;;;;;;;19.45;65.41;101962.78;5033313;28;20033;-54
2023/10/02 01:49:24;;;;;;;7.68;4.75;;;;;;;19.45;65.10;101969.03;5034364;28;20037;-55
2023/10/02 01:51:55;;;;;;;6.65;4.32;;;;;;;19.45;65.35;101968.19;5031764;28;20122;-55
2023/10/02 01:54:22;;;;;;;8.73;4.50;;;;;;;19.46;65.47;101972.63;5034054;28;20052;-55
2023/10/02 01:56:49;;;;;;;9.23;5.00;;;;;;;19.45;65.42;101966.31;5033865;28;20115;-55
2023/10/02 01:59:16;;;;;;;10.18;5.63;;;;;;;19.44;65.43;101970.03;5033859;28;20123;-55
2023/10/02 02:01:56;;;;;;;8.25;4.80;;;;;;;19.45;65.00;101974.44;5035255;28;20171;-55
2023/10/02 02:04:24;;;;;;;7.00;4.53;;;;;;;19.45;65.05;101962.78;5033542;28;20087;-55
2023/10/02 02:06:57;;;;;;;6.47;4.45;;;;;;;19.43;65.07;101965.59;5034937;28;20057;-55
2023/10/02 02:09:25;;;;;;;8.48;5.03;;;;;;;19.44;65.19;101972.72;5035222;28;20033;-55
2023/10/02 02:12:05;;;;;;;7.95;4.60;;;;;;;19.45;65.09;101970.88;5034545;28;20379;-55
2023/10/02 02:14:40;;;;;;;8.00;4.57;;;;;;;19.44;65.09;101966.44;5031992;28;20068;-55
2023/10/02 02:17:12;;;;;;;6.47;4.35;;;;;;;19.43;64.97;101962.91;5034330;28;20585;-55
2023/10/02 02:19:47;;;;;;;6.95;4.15;;;;;;;19.45;64.96;101966.31;5029690;28;20068;-55
2023/10/02 02:22:17;;;;;;;8.13;5.13;;;;;;;19.43;64.88;101967.44;5034495;28;20033;-55
2023/10/02 02:24:44;;;;;;;7.97;4.60;;;;;;;19.43;64.85;101953.94;5033835;28;20488;-55
2023/10/02 02:27:09;;;;;;;9.30;4.40;;;;;;;19.43;64.94;101962.06;5033499;28;20044;-55
2023/10/02 02:29:35;;;;;;;7.07;4.55;;;;;;;19.42;64.93;101963.91;5033721;28;20041;-55
2023/10/02 02:32:00;;;;;;;9.55;4.50;;;;;;;19.43;65.11;101967.44;5033301;28;20029;-56
2023/10/02 02:34:26;;;;;;;8.18;4.80;;;;;;;19.42;64.88;101955.81;5034014;28;20041;-55
2023/10/02 02:36:54;;;;;;;8.52;4.18;;;;;;;19.42;64.94;101958.50;5033650;28;20463;-55
2023/10/02 02:39:22;;;;;;;6.57;4.47;;;;;;;19.42;64.88;101960.31;5033177;28;20030;-55
2023/10/02 02:42:18;;;;;;;8.18;5.15;;;;;;;19.42;64.87;101961.22;5032029;28;20060;-55
2023/10/02 02:44:49;;;;;;;8.77;4.82;;;;;;;19.41;65.27;101954.06;5030491;28;20089;-55
2023/10/02 02:47:20;;;;;;;;;;;;;;;19.49;64.81;101953.44;5034507;28;20033;-55
2023/10/02 02:49:58;;;;;;;7.45;4.65;;;;;;;19.42;65.15;101953.09;5034043;28;20003;-55
2023/10/02 02:52:26;;;;;;;6.72;4.35;;;;;;;19.41;65.00;101950.53;5035020;28;20033;-55
2023/10/02 02:54:59;;;;;;;9.18;4.82;;;;;;;19.40;64.71;101952.38;5029993;28;20025;-55
2023/10/02 02:57:27;;;;;;;8.20;4.50;;;;;;;19.39;64.94;101939.84;5034225;28;20435;-55
2023/10/02 03:02:44;;;;;;;7.18;4.50;;;;;;;19.40;64.70;101943.38;5033872;28;20552;-55
2023/10/02 03:05:11;;;;;;;7.75;4.78;;;;;;;19.39;65.00;101939.84;5033506;28;20127;-55
2023/10/02 03:07:42;;;;;;;7.38;5.00;;;;;;;19.39;64.95;101939.00;5033377;28;20494;-55
2023/10/02 03:10:11;;;;;;;8.15;4.63;;;;;;;19.39;64.74;101937.13;5032859;28;20037;-55
2023/10/02 03:12:48;;;;;;;7.93;4.63;;;;;;;19.39;64.84;101936.28;5032790;28;20033;-55
2023/10/02 03:15:17;;;;;;;9.07;4.82;;;;;;;19.39;64.75;101934.44;5032894;28;20030;-55
2023/10/02 03:17:44;;;;;;;7.90;4.68;;;;;;;19.38;64.57;101926.47;5032371;28;20127;-55
2023/10/02 03:20:25;;;;;;;7.95;5.00;;;;;;;19.38;64.71;101927.34;5031405;28;20040;-55
2023/10/02 03:22:57;;;;;;;7.97;4.55;;;;;;;19.39;64.85;101918.25;5029822;28;20467;-55
2023/10/02 03:25:40;;;;;;;6.72;4.20;;;;;;;19.37;64.53;101917.50;5033703;28;20554;-55
2023/10/02 03:28:16;;;;;;;9.80;5.20;;;;;;;19.37;64.50;101922.91;5032133;28;20032;-55
2023/10/02 03:30:46;;;;;;;8.60;4.75;;;;;;;19.37;64.60;101922.91;5030672;28;20475;-55
2023/10/02 03:33:18;;;;;;;8.10;4.90;;;;;;;19.37;64.48;101920.22;5033673;28;20041;-55
2023/10/02 03:35:56;;;;;;;9.50;4.90;;;;;;;19.37;64.45;101922.91;5033405;28;20035;-55
2023/10/02 03:38:26;;;;;;;6.43;4.30;;;;;;;19.36;64.84;101918.47;5033396;28;20113;-55
2023/10/02 03:40:58;;;;;;;8.30;4.95;;;;;;;19.36;64.36;101923.88;5033093;28;20090;-55
2023/10/02 03:43:43;;;;;;;7.43;4.15;;;;;;;19.36;64.65;101923.03;5029741;28;20120;-55
2023/10/02 03:46:35;;;;;;;8.65;4.90;;;;;;;19.37;64.79;101922.91;5030541;28;20449;-55
2023/10/02 03:48:58;;;;;;;7.85;4.82;;;;;;;19.37;64.41;101928.31;5030868;28;20037;-55
2023/10/02 03:51:36;;;;;;;7.68;4.53;;;;;;;19.36;64.63;101926.59;5032486;28;20082;-55
2023/10/02 03:54:17;;;;;;;9.90;4.70;;;;;;;19.35;64.43;101924.88;5031843;28;20033;-55
2023/10/02 03:56:55;;;;;;;10.63;4.80;;;;;;;19.36;64.36;101925.75;5032875;28;20036;-55
2023/10/02 03:59:26;;;;;;;7.93;4.80;;;;;;;19.35;64.59;101922.19;5036089;28;20032;-55
2023/10/02 04:01:51;;;;;;;8.23;4.97;;;;;;;19.35;64.69;101924.88;5034890;28;20029;-55
2023/10/02 04:04:21;;;;;;;7.90;4.68;;;;;;;19.34;64.50;101924.03;5036265;28;20041;-55
2023/10/02 04:06:56;;;;;;;9.60;5.18;;;;;;;19.34;64.09;101920.47;5036303;28;20045;-55
2023/10/02 04:09:25;;;;;;;7.70;4.80;;;;;;;19.34;64.54;101926.75;5034283;28;20037;-55
2023/10/02 04:11:52;;;;;;;8.43;5.03;;;;;;;19.34;64.39;101926.75;5036917;28;20033;-55
2023/10/02 04:14:23;;;;;;;9.82;4.82;;;;;;;19.34;64.41;101920.47;5036725;28;20029;-55
2023/10/02 04:16:51;;;;;;;8.23;4.60;;;;;;;19.33;64.72;101922.31;5036645;28;20087;-55
2023/10/02 04:19:23;;;;;;;8.35;4.65;;;;;;;19.33;63.95;101918.75;5036340;28;20052;-55
2023/10/02 04:21:51;;;;;;;8.23;4.97;;;;;;;19.33;64.28;101924.16;5032975;28;20747;-55
2023/10/02 04:24:23;;;;;;;7.93;5.07;;;;;;;19.33;64.33;101913.34;5036238;28;20520;-55
2023/10/02 04:27:08;;;;;;;7.80;4.57;;;;;;;19.33;64.42;101916.06;5036195;28;20037;-55
2023/10/02 04:29:37;;;;;;;7.28;4.88;;;;;;;19.32;64.30;101917.91;5034889;28;20033;-55
2023/10/02 04:32:14;;;;;;;7.63;4.43;;;;;;;19.32;64.49;101920.63;5035009;28;20037;-55
2023/10/02 04:34:50;;;;;;;9.25;4.85;;;;;;;19.32;64.25;101917.03;5034020;28;20034;-55
2023/10/02 04:37:22;;;;;;;8.65;4.97;;;;;;;19.32;64.02;101922.44;5032920;28;20040;-55
2023/10/02 04:42:58;;;;;;;8.90;4.72;;;;;;;19.32;64.36;101917.03;5032833;28;20139;-55
2023/10/02 04:45:25;;;;;;;9.18;5.35;;;;;;;19.32;64.29;101917.03;5034479;28;20491;-55
2023/10/02 04:47:54;;;;;;;8.48;4.85;;;;;;;19.30;64.17;101914.44;5030372;28;20037;-55
2023/10/02 04:52:56;;;;;;;9.95;4.80;;;;;;;19.29;64.01;101918.16;5036205;28;20045;-55
2023/10/02 04:55:42;;;;;;;8.43;5.05;;;;;;;19.33;64.30;101918.75;5036588;28;20387;-55
2023/10/02 04:58:09;;;;;;;8.02;4.43;;;;;;;19.30;64.33;101919.84;5032476;28;20040;-55
2023/10/02 05:00:35;;;;;;;8.65;4.72;;;;;;;19.31;64.33;101907.22;5033265;28;20033;-55
2023/10/02 05:03:09;;;;;;;8.02;4.55;;;;;;;19.30;64.06;101905.50;5034112;28;20104;-55
2023/10/02 05:05:49;;;;;;;8.35;5.03;;;;;;;19.29;64.42;101907.34;5030859;28;20083;-55
2023/10/02 05:11:24;;;;;;;8.55;4.63;;;;;;;19.30;63.83;101908.19;5031936;28;20538;-55
2023/10/02 05:16:33;;;;;;;8.90;4.80;;;;;;;19.28;63.84;101905.63;5033691;28;20464;-55
2023/10/02 05:19:01;;;;;;;8.45;4.95;;;;;;;19.28;64.07;101904.78;5032758;28;20045;-55
2023/10/02 05:21:39;;;;;;;7.47;4.53;;;;;;;19.27;63.96;101912.03;5033287;28;20067;-55
2023/10/02 05:24:11;;;;;;;7.70;4.70;;;;;;;19.28;63.88;101913.72;5035382;28;20034;-55
2023/10/02 05:26:39;;;;;;;9.85;5.05;;;;;;;19.27;64.22;101914.72;5034469;28;20039;-55
2023/10/02 05:29:09;;;;;;;8.20;4.65;;;;;;;19.27;64.09;101917.44;5035087;28;20487;-55
2023/10/02 05:31:41;;;;;;;7.57;4.38;;;;;;;19.27;64.06;101916.59;5032490;28;20083;-58
2023/10/02 05:34:21;;;;;;;8.77;4.65;;;;;;;19.27;63.71;101919.28;5035591;28;20124;-55
2023/10/02 05:39:39;;;;;;;9.40;5.00;;;;;;;19.27;63.63;101920.13;5034718;28;20045;-54
2023/10/02 05:42:05;;;;;;;7.38;4.72;;;;;;;19.26;63.96;101915.69;5033660;28;20039;-54
2023/10/02 05:44:35;;;;;;;8.63;4.68;;;;;;;19.26;64.17;101920.25;5036583;28;20033;-54
2023/10/02 05:47:07;;;;;;;8.25;4.88;;;;;;;19.26;63.71;101918.41;5035719;28;20028;-54
2023/10/02 05:49:36;;;;;;;6.78;4.45;;;;;;;19.26;63.74;101929.19;5036213;28;20041;-54
2023/10/02 05:52:02;;;;;;;8.50;4.60;;;;;;;19.26;63.97;101922.94;5032381;28;20026;-55
2023/10/02 05:54:35;;;;;;;9.20;4.90;;;;;;;19.26;63.91;101934.59;5033727;28;20030;-55
2023/10/02 05:57:12;;;;;;;6.80;4.07;;;;;;;19.26;63.45;101939.16;5032951;28;20112;-55
2023/10/02 05:59:45;;;;;;;8.32;4.70;;;;;;;19.26;63.56;101944.56;5032780;28;20031;-55
2023/10/02 06:02:22;;;;;;;8.40;5.05;;;;;;;19.26;63.60;101941.84;5033089;28;20048;-55
2023/10/02 06:04:53;;;;;;;9.00;4.90;;;;;;;19.25;63.59;101932.06;5031777;28;20083;-55
2023/10/02 06:10:24;;;;;;;8.57;4.65;;;;;;;19.27;63.38;101938.19;5032872;28;20040;-55
2023/10/02 06:13:03;;;;;;;8.30;4.80;;;;;;;19.25;63.71;101943.72;5031861;28;20406;-55
2023/10/02 06:16:09;;;;;;;8.45;4.72;;;;;;;19.26;63.53;101941.84;5032117;28;20041;-55
2023/10/02 06:18:27;;;;;;;7.05;4.60;;;;;;;19.26;63.18;101936.47;5031839;28;20057;-55
2023/10/02 06:21:03;;;;;;;7.40;4.95;;;;;;;19.26;63.33;101941.84;5032429;28;20042;-55
2023/10/02 06:23:37;;;;;;;9.43;5.18;;;;;;;19.25;63.38;101942.84;5034078;28;20021;-55
2023/10/02 06:26:09;;;;;;;8.50;5.20;;;;;;;19.25;63.54;101934.75;5035179;28;20029;-55
2023/10/02 06:28:39;;;;;;;8.13;4.53;;;;;;;19.25;63.45;101949.09;5029249;28;20088;-55
2023/10/02 06:31:08;;;;;;;8.10;4.60;;;;;;;19.25;63.22;101942.84;5032260;28;20033;-55
2023/10/02 06:33:36;;;;;;;10.45;5.00;;;;;;;19.25;63.09;101940.16;5032142;28;20071;-55
2023/10/02 06:36:08;;;;;;;9.27;4.90;;;;;;;19.24;63.71;101938.44;5033606;28;20029;-55
2023/10/02 06:38:34;;;;;;;10.00;4.90;;;;;;;19.24;63.29;101938.44;5033247;28;20383;-55
2023/10/02 06:41:07;;;;;;;7.32;4.55;;;;;;;19.25;63.53;101945.56;5033864;28;20426;-55
2023/10/02 06:43:33;;;;;;;9.38;5.15;;;;;;;19.24;63.14;101946.53;5034240;28;20036;-54
2023/10/02 06:46:09;;;;;;;8.80;5.07;;;;;;;19.24;63.44;101943.81;5034067;28;20361;-54
2023/10/02 06:48:35;;;;;;;10.52;5.28;;;;;;;19.25;63.11;101950.97;5034319;28;20079;-54
2023/10/02 06:51:04;;;;;;;9.90;4.93;;;;;;;19.23;63.35;101951.09;5032325;28;20037;-54
2023/10/02 06:53:30;;;;;;;14.57;4.78;;;;;;;19.27;64.00;101954.38;5033831;28;20040;-53
2023/10/02 06:56:07;;;;;;;12.70;5.85;;;;;;;19.32;64.16;101952.13;5034998;28;20060;-52
2023/10/02 06:58:48;;;;;;;12.85;5.43;;;;;;;19.34;64.40;101952.88;5034806;28;20083;-53
2023/10/02 07:01:14;;;;;;;16.90;5.30;;;;;;;19.35;64.27;101951.91;5031160;28;20112;-53
2023/10/02 07:03:40;;;;;;;12.38;5.45;;;;;;;19.35;64.27;101946.50;5029844;28;20816;-53
2023/10/02 07:06:08;;;;;;;11.73;5.50;;;;;;;19.34;64.66;101936.66;5030390;28;20029;-53
2023/10/02 07:08:36;;;;;;;13.13;5.97;;;;;;;19.35;64.96;101938.38;5028635;28;20037;-53
2023/10/02 07:11:10;;;;;;;14.90;6.68;;;;;;;19.36;65.07;101940.09;5033135;28;20044;-53
2023/10/02 07:13:50;;;;;;;15.15;6.15;;;;;;;19.36;65.45;101942.78;5033204;28;20029;-54
2023/10/02 07:16:17;;;;;;;12.68;6.22;;;;;;;19.36;65.42;101940.09;5032944;28;20037;-53
2023/10/02 07:18:49;;;;;;;14.02;7.03;;;;;;;19.37;65.60;101941.81;5032288;28;20045;-54
2023/10/02 07:21:21;;;;;;;13.50;7.28;;;;;;;19.38;65.61;101945.38;5031671;28;20029;-53
2023/10/02 07:23:47;;;;;;;13.10;6.68;;;;;;;19.37;65.54;101944.53;5031888;28;20052;-53
2023/10/02 07:26:15;;;;;;;15.90;7.45;;;;;;;19.39;65.55;101947.09;5030490;28;20033;-53
2023/10/02 07:28:50;;;;;;;14.23;7.20;;;;;;;19.39;65.99;101945.25;5024563;28;20026;-53
2023/10/02 07:31:24;;;;;;;14.82;6.97;;;;;;;19.40;65.64;101944.28;5028943;28;20029;-53
2023/10/02 07:33:55;;;;;;;14.00;7.65;;;;;;;19.42;65.85;101945.00;5033072;28;20564;-54
2023/10/02 07:36:20;;;;;;;11.82;7.00;;;;;;;19.42;66.00;101950.41;5031682;28;20040;-53
2023/10/02 07:38:46;;;;;;;15.13;7.32;;;;;;;19.43;65.77;101949.41;5032780;28;20467;-53
2023/10/02 07:41:23;;;;;;;14.95;7.57;;;;;;;19.43;65.51;101949.41;5032639;28;20468;-53
2023/10/02 07:43:53;;;;;;;15.05;7.65;;;;;;;19.45;65.76;101951.97;5030443;28;20037;-53
2023/10/02 07:46:21;;;;;;;18.08;8.60;;;;;;;19.45;65.83;101944.72;5033641;28;20136;-53
2023/10/02 07:49:00;;;;;;;14.82;7.63;;;;;;;19.45;65.82;101944.72;5030832;28;20554;-53
2023/10/02 07:51:35;;;;;;;15.90;7.80;;;;;;;19.45;65.83;101950.13;5032459;28;20375;-53
2023/10/02 07:54:02;;;;;;;13.95;7.35;;;;;;;19.45;65.77;101944.72;5030338;28;20037;-53
2023/10/02 07:56:29;;;;;;;15.95;7.65;;;;;;;19.45;66.06;101947.41;5033680;28;20045;-53
2023/10/02 07:58:55;;;;;;;17.40;8.75;;;;;;;19.46;66.05;101943.75;5033374;28;20387;-53
2023/10/02 08:01:25;;;;;;;16.90;7.45;;;;;;;19.46;65.89;101940.19;5032725;28;20463;-54
2023/10/02 08:03:51;;;;;;;17.70;7.65;;;;;;;19.46;66.30;101938.34;5028966;28;20037;-53
2023/10/02 08:06:21;;;;;;;14.38;7.43;;;;;;;19.46;66.21;101941.03;5033122;28;20021;-54
2023/10/02 08:08:54;;;;;;;16.83;8.35;;;;;;;19.46;66.08;101943.75;5028880;28;20082;-53
2023/10/02 08:11:19;;;;;;;15.95;8.13;;;;;;;19.47;66.25;101941.91;5032250;28;20440;-54
2023/10/02 08:13:48;;;;;;;16.23;8.05;;;;;;;19.46;66.09;101941.03;5032100;28;20112;-54
2023/10/02 08:16:17;;;;;;;16.05;7.72;;;;;;;19.47;65.98;101953.56;5028858;28;20079;-53
2023/10/02 08:18:58;;;;;;;17.70;7.95;;;;;;;19.48;66.24;101957.97;5032893;28;20045;-53
2023/10/02 08:21:46;;;;;;;15.50;7.40;;;;;;;19.49;66.38;101956.97;5029998;28;20041;-53
2023/10/02 08:24:13;;;;;;;19.17;8.57;;;;;;;19.49;66.50;101956.97;5030453;28;20045;-53
2023/10/02 08:26:40;;;;;;;14.55;8.13;;;;;;;19.48;66.65;101949.88;5033344;28;20038;-53
2023/10/02 08:29:16;;;;;;;18.33;8.65;;;;;;;19.50;66.43;101958.72;5032667;28;20063;-53
2023/10/02 08:31:48;;;;;;;14.35;7.95;;;;;;;19.50;66.30;101958.72;5028745;28;20025;-54
2023/10/02 08:34:24;;;;;;;18.20;8.68;;;;;;;19.51;66.79;101965.84;5033756;28;20048;-54
2023/10/02 08:37:08;;;;;;;16.08;8.25;;;;;;;19.53;66.20;101963.88;5030331;28;20032;-53
2023/10/02 08:39:35;;;;;;;14.80;7.88;;;;;;;19.56;66.75;101956.47;5029822;28;20108;-53
2023/10/02 08:42:08;;;;;;;15.52;8.82;;;;;;;19.56;66.70;101951.09;5035495;28;20041;-53
2023/10/02 08:44:37;;;;;;;15.55;8.32;;;;;;;19.57;66.79;101952.78;5035922;28;20030;-53
2023/10/02 08:47:04;;;;;;;17.05;8.73;;;;;;;19.59;66.69;101945.41;5035363;28;20041;-53
2023/10/02 08:49:30;;;;;;;16.77;8.60;;;;;;;19.60;66.76;101947.13;5032862;28;20040;-53
2023/10/02 08:51:55;;;;;;;16.70;8.20;;;;;;;19.60;66.56;101955.22;5035059;28;20037;-54
2023/10/02 08:54:27;;;;;;;14.38;7.85;;;;;;;19.60;66.45;101945.28;5035026;28;20132;-54
2023/10/02 08:57:06;;;;;;;14.85;7.65;;;;;;;19.62;66.19;101937.03;5035113;28;20498;-54
2023/10/02 08:59:38;;;;;;;14.15;7.70;;;;;;;19.64;66.49;101938.63;5033788;28;20108;-54
2023/10/02 09:02:15;;;;;;;14.75;8.23;;;;;;;19.64;66.51;101922.41;5035602;28;20045;-54
2023/10/02 09:04:51;;;;;;;15.82;8.38;;;;;;;19.64;66.69;101938.63;5033475;28;20024;-54
2023/10/02 09:07:24;;;;;;;17.70;7.90;;;;;;;19.65;66.84;101928.69;5035637;28;20041;-54
2023/10/02 09:10:18;;;;;;;16.35;8.35;;;;;;;19.68;66.33;101925.72;5047883;28;20075;-54
2023/10/02 09:12:51;;;;;;;17.48;8.40;;;;;;;19.67;66.32;101937.53;5034485;28;20127;-54
2023/10/02 09:15:27;;;;;;;16.88;8.82;;;;;;;19.68;66.34;101933.81;5033375;28;20039;-54
2023/10/02 09:17:57;;;;;;;14.23;7.80;;;;;;;19.68;66.71;101945.47;5032783;28;20029;-54
2023/10/02 09:20:38;;;;;;;18.25;8.93;;;;;;;19.69;66.97;101943.66;5034078;28;20045;-54
2023/10/02 09:23:08;;;;;;;17.70;9.05;;;;;;;19.69;67.19;101944.50;5034126;28;20053;-54
2023/10/02 09:25:37;;;;;;;15.35;8.73;;;;;;;19.68;66.52;101934.66;5032852;28;20056;-54
2023/10/02 09:28:04;;;;;;;18.10;9.73;;;;;;;19.68;67.03;101934.66;5033798;28;20052;-54
2023/10/02 09:33:08;;;;;;;16.90;8.45;;;;;;;19.69;67.24;101927.44;5028719;28;20052;-54
2023/10/02 09:35:44;;;;;;;16.60;7.78;;;;;;;19.69;66.93;101928.28;5030810;28;20025;-54
2023/10/02 09:38:13;;;;;;;17.35;8.88;;;;;;;19.71;67.07;101928.16;5033105;28;20128;-54
2023/10/02 09:43:28;;;;;;;14.95;8.23;;;;;;;19.69;66.75;101930.13;5032588;28;20090;-54
2023/10/02 09:46:00;;;;;;;17.63;8.68;;;;;;;19.70;67.02;101931.84;5034082;28;20033;-54
2023/10/02 09:48:46;;;;;;;16.83;8.63;;;;;;;19.70;67.02;101927.31;5030572;28;20036;-54
2023/10/02 09:51:29;;;;;;;16.70;8.55;;;;;;;19.72;66.59;101933.47;5032889;28;20039;-54
2023/10/02 09:54:32;;;;;;;17.23;8.82;;;;;;;19.72;66.45;101919.97;5031350;28;20029;-54
2023/10/02 09:57:13;;;;;;;15.25;7.78;;;;;;;19.72;66.70;101927.19;5033386;28;20026;-54
2023/10/02 09:59:46;;;;;;;17.90;8.77;;;;;;;19.74;66.99;101927.91;5032563;28;20055;-54
2023/10/02 10:08:33;;;;;;;16.77;8.82;;;;;;;19.78;67.16;101929.38;5032301;28;20037;-54
2023/10/02 10:10:53;;;;;;;17.83;8.68;;;;;;;19.76;67.69;101925.06;5033425;28;20029;-54
2023/10/02 10:13:46;;;;;;;15.13;7.90;;;;;;;19.79;66.98;101928.38;5033777;28;20033;-54
2023/10/02 10:16:18;;;;;;;18.23;9.55;;;;;;;19.78;67.54;101918.56;5032622;28;20112;-54
2023/10/02 10:21:58;;;;;;;15.25;8.48;;;;;;;19.80;67.41;101915.72;5031698;28;20041;-54
2023/10/02 10:24:56;;;;;;;18.05;8.55;;;;;;;19.81;66.99;101906.63;5033505;28;20036;-54
2023/10/02 10:27:43;;;;;;;18.08;8.65;;;;;;;19.81;67.26;101904.78;5034622;28;20026;-53
2023/10/02 10:35:38;;;;;;;18.63;9.43;;;;;;;19.82;68.08;101911.91;5031685;28;20395;-54
2023/10/02 10:40:50;;;;;;;20.00;9.38;;;;;;;19.82;68.38;101898.41;5031711;28;20104;-54
2023/10/02 10:43:17;;;;;;;17.50;8.90;;;;;;;19.82;68.32;101903.81;5032658;28;20025;-54
2023/10/02 10:45:48;;;;;;;16.50;9.18;;;;;;;19.83;68.30;101899.25;5029988;28;20087;-53
2023/10/02 10:48:23;;;;;;;16.52;8.73;;;;;;;19.83;68.14;101896.53;5032335;28;20072;-54
2023/10/02 10:50:57;;;;;;;16.80;8.80;;;;;;;19.84;68.21;101892.88;5030069;28;20428;-54
2023/10/02 10:53:26;;;;;;;18.42;8.77;;;;;;;19.84;68.41;101891.00;5031887;28;20040;-54
2023/10/02 10:56:23;;;;;;;18.13;9.52;;;;;;;19.85;67.94;101887.31;5031485;28;20041;-54
2023/10/02 10:58:52;;;;;;;17.70;9.18;;;;;;;19.84;68.24;101899.13;5030306;28;20049;-53
2023/10/02 11:01:20;;;;;;;17.30;9.23;;;;;;;19.84;68.34;101896.41;5031405;28;20060;-54
2023/10/02 11:03:54;;;;;;;16.88;8.93;;;;;;;19.86;68.19;101889.03;5031373;28;20079;-54
2023/10/02 11:06:21;;;;;;;17.25;9.38;;;;;;;19.87;67.93;101892.59;5032922;28;20030;-53
2023/10/02 11:09:13;;;;;;;17.60;9.50;;;;;;;19.88;67.98;101881.66;5034252;28;20030;-54
2023/10/02 11:11:49;;;;;;;16.83;8.75;;;;;;;19.87;67.78;101879.91;5029924;28;20028;-54
2023/10/02 11:14:23;;;;;;;20.75;9.43;;;;;;;19.88;68.33;101880.78;5031614;28;20025;-54
2023/10/02 11:16:54;;;;;;;23.05;9.88;;;;;;;19.88;68.22;101878.94;5030356;28;20080;-53
2023/10/02 11:19:25;;;;;;;20.33;10.10;;;;;;;19.91;68.93;101880.50;5031361;28;20068;-54
2023/10/02 11:22:01;;;;;;;18.42;9.25;;;;;;;19.91;68.48;101875.97;5032226;28;20042;-54
2023/10/02 11:24:26;;;;;;;21.08;9.73;;;;;;;19.91;68.59;101869.69;5032924;28;20033;-54
2023/10/02 11:26:54;;;;;;;19.48;10.05;;;;;;;19.92;68.80;101861.47;5034147;28;20537;-54
2023/10/02 11:29:20;;;;;;;23.95;10.75;;;;;;;19.92;69.36;101864.16;5033817;28;20116;-54
2023/10/02 11:32:27;;;;;;;17.63;9.40;;;;;;;19.96;68.66;101866.59;5033423;28;20025;-54
2023/10/02 11:34:59;;;;;;;25.52;10.90;;;;;;;19.95;69.24;101854.91;5030553;28;20033;-53
2023/10/02 11:37:26;;;;;;;18.20;8.75;;;;;;;19.96;69.02;101861.19;5032660;28;20030;-54
2023/10/02 11:39:58;;;;;;;19.45;10.10;;;;;;;19.96;68.56;101856.66;5033468;28;20108;-54
2023/10/02 11:42:24;;;;;;;22.67;9.60;;;;;;;19.96;68.74;101851.25;5033118;28;20033;-54
2023/10/02 11:44:49;;;;;;;21.58;9.68;;;;;;;19.98;68.96;101853.81;5033687;28;20047;-54
2023/10/02 11:47:15;;;;;;;18.45;9.65;;;;;;;19.99;68.68;101850.09;5034425;28;20030;-54
2023/10/02 11:49:41;;;;;;;17.73;9.07;;;;;;;20.00;68.66;101851.81;5033484;28;20059;-54
2023/10/02 11:52:07;;;;;;;20.63;10.05;;;;;;;20.00;68.96;101849.97;5034726;28;20061;-54
2023/10/02 11:54:42;;;;;;;19.27;10.23;;;;;;;20.01;68.97;101848.13;5034649;28;20057;-54
2023/10/02 11:57:12;;;;;;;18.65;9.88;;;;;;;20.01;69.10;101837.31;5033258;28;20055;-54
2023/10/02 11:59:41;;;;;;;20.38;9.55;;;;;;;20.02;68.79;101831.75;5033792;28;20045;-54
2023/10/02 12:02:10;;;;;;;17.52;9.55;;;;;;;20.04;68.94;101837.03;5033763;28;20029;-54
2023/10/02 12:04:36;;;;;;;21.88;10.50;;;;;;;20.04;68.56;101837.88;5030577;28;20037;-54
2023/10/02 12:07:01;;;;;;;17.77;9.45;;;;;;;20.05;69.06;101833.38;5033541;28;20103;-54
2023/10/02 12:09:27;;;;;;;21.00;10.05;;;;;;;20.06;69.12;101829.66;5033425;28;20040;-54
2023/10/02 12:11:53;;;;;;;16.05;8.90;;;;;;;20.05;68.94;101828.81;5033164;28;20117;-53
2023/10/02 12:14:18;;;;;;;24.48;10.20;;;;;;;20.06;68.92;101819.69;5030669;28;20045;-54
2023/10/02 12:16:44;;;;;;;21.30;9.63;;;;;;;20.06;69.24;101818.84;5036892;28;20045;-54
2023/10/02 12:19:10;;;;;;;17.63;9.23;;;;;;;20.07;69.14;101817.84;5036588;28;20053;-54
2023/10/02 12:21:36;;;;;;;16.38;8.70;;;;;;;20.06;69.19;101821.53;5038051;28;20037;-54
2023/10/02 12:24:03;;;;;;;17.23;9.30;;;;;;;20.07;69.07;101821.41;5037969;28;20163;-54
2023/10/02 12:26:29;;;;;;;19.70;9.45;;;;;;;20.07;68.65;101813.28;5037689;28;20033;-54
2023/10/02 12:28:55;;;;;;;20.10;9.85;;;;;;;20.09;69.22;101823.97;5036375;28;20088;-54